Time;durP1;ratioP1;P1;durP2;ratioP2;P2;SDS_P1;SDS_P2;PMS_P1;PMS_P2;Temp;Humidity;BMP_temperature;BMP_pressure;BME280_temperature;BME280_humidity;BME280_pressure;Samples;Min_cycle;Max_cycle;Signal;HPM_P1;HPM_P2
2022/09/30 00:01:44;;;;;;;10.40;7.05;;;10.50;99.90;;;;;;4996856;28;25135;-70
2022/09/30 00:04:15;;;;;;;12.27;6.30;;;10.50;99.90;;;;;;4983764;28;25052;-69
2022/09/30 00:06:41;;;;;;;15.23;7.20;;;10.60;99.90;;;;;;4984013;28;25063;-70
2022/09/30 00:09:10;;;;;;;12.68;6.35;;;10.50;99.90;;;;;;4993016;28;25104;-70
2022/09/30 00:11:37;;;;;;;13.85;6.22;;;10.40;99.90;;;;;;4998037;28;25103;-69
2022/09/30 00:14:03;;;;;;;14.52;6.93;;;10.40;99.90;;;;;;4988479;28;25060;-71
2022/09/30 00:16:34;;;;;;;9.45;6.25;;;10.40;99.90;;;;;;4985744;28;25137;-72
2022/09/30 00:19:00;;;;;;;9.73;6.28;;;10.30;99.90;;;;;;4989126;28;25106;-70
2022/09/30 00:21:27;;;;;;;10.77;6.55;;;10.40;99.90;;;;;;4989538;28;25080;-72
2022/09/30 00:23:53;;;;;;;11.27;6.65;;;10.50;99.90;;;;;;4984756;28;25149;-70
2022/09/30 00:26:22;;;;;;;11.18;6.97;;;10.40;99.90;;;;;;4992640;28;25063;-70
2022/09/30 00:28:56;;;;;;;11.60;7.03;;;10.30;99.90;;;;;;4992367;28;25074;-69
2022/09/30 00:31:23;;;;;;;18.75;7.15;;;10.30;99.90;;;;;;4989823;28;25056;-70
2022/09/30 00:34:08;;;;;;;14.48;7.15;;;10.40;99.90;;;;;;4993829;28;25071;-70
2022/09/30 00:36:42;;;;;;;8.90;6.13;;;10.50;99.90;;;;;;4987739;28;25048;-70
2022/09/30 00:39:12;;;;;;;13.93;6.43;;;10.40;99.90;;;;;;4995394;28;25055;-69
2022/09/30 00:41:38;;;;;;;11.85;6.97;;;10.30;99.90;;;;;;5002176;28;25079;-69
2022/09/30 00:44:42;;;;;;;12.77;6.90;;;10.30;99.90;;;;;;4997345;28;25060;-69
2022/09/30 00:47:32;;;;;;;15.73;6.95;;;10.40;99.90;;;;;;4994400;28;25105;-69
2022/09/30 00:50:09;;;;;;;11.73;6.95;;;10.50;99.90;;;;;;4992134;28;25154;-70
2022/09/30 00:52:35;;;;;;;11.82;6.82;;;10.30;99.90;;;;;;4995801;28;25071;-69
2022/09/30 00:55:07;;;;;;;11.68;6.45;;;10.30;99.90;;;;;;4997622;28;25206;-70
2022/09/30 00:57:33;;;;;;;12.45;7.20;;;10.20;99.90;;;;;;4994871;28;25063;-71
2022/09/30 01:00:00;;;;;;;9.95;6.10;;;10.20;99.90;;;;;;4987728;28;25079;-69
2022/09/30 01:02:25;;;;;;;16.98;7.30;;;10.00;99.90;;;;;;4994515;28;25069;-70
2022/09/30 01:04:53;;;;;;;9.80;6.32;;;9.90;99.90;;;;;;4983314;28;25109;-72
2022/09/30 01:07:20;;;;;;;10.98;7.10;;;9.90;99.90;;;;;;4985673;28;25078;-70
2022/09/30 01:09:47;;;;;;;11.35;6.47;;;10.00;99.90;;;;;;4998810;28;25071;-69
2022/09/30 01:12:19;;;;;;;13.15;6.22;;;10.10;99.90;;;;;;4993233;28;25059;-68
2022/09/30 01:14:50;;;;;;;10.10;5.95;;;10.10;99.90;;;;;;4994461;28;25066;-69
2022/09/30 01:17:27;;;;;;;15.07;7.03;;;10.10;99.90;;;;;;5002944;28;25159;-70
2022/09/30 01:20:28;;;;;;;9.05;5.55;;;10.00;99.90;;;;;;4991435;28;25097;-69
2022/09/30 01:23:20;;;;;;;14.95;6.50;;;9.90;99.90;;;;;;4998256;28;25012;-70
2022/09/30 01:25:57;;;;;;;13.38;6.78;;;10.00;99.90;;;;;;4985210;28;25055;-69
2022/09/30 01:28:49;;;;;;;9.98;5.97;;;10.00;99.90;;;;;;4991186;28;25067;-69
2022/09/30 01:31:31;;;;;;;10.30;5.60;;;10.00;99.90;;;;;;4975813;28;25048;-69
2022/09/30 01:34:24;;;;;;;10.10;6.00;;;9.90;99.90;;;;;;4986920;28;25061;-70
2022/09/30 01:36:52;;;;;;;13.70;6.93;;;9.80;99.90;;;;;;4992903;28;25115;-69
2022/09/30 01:39:49;;;;;;;11.90;6.43;;;9.90;99.90;;;;;;4985155;28;25119;-70
2022/09/30 01:42:55;;;;;;;10.90;6.65;;;10.10;99.90;;;;;;4982881;28;25095;-67
2022/09/30 01:45:45;;;;;;;11.13;6.25;;;10.10;99.90;;;;;;4944270;28;25076;-69
2022/09/30 01:48:48;;;;;;;11.18;6.43;;;9.90;99.90;;;;;;4985366;28;25075;-69
2022/09/30 01:51:29;;;;;;;10.98;6.50;;;9.90;99.90;;;;;;4992684;28;25077;-69
2022/09/30 01:54:13;;;;;;;11.10;6.18;;;10.00;99.90;;;;;;4984240;28;25151;-70
2022/09/30 01:56:46;;;;;;;12.90;6.90;;;10.00;99.90;;;;;;4994736;28;25159;-71
2022/09/30 01:59:23;;;;;;;10.15;5.60;;;10.00;99.90;;;;;;4980699;28;25068;-70
2022/09/30 02:02:01;;;;;;;9.23;5.85;;;10.00;99.90;;;;;;4987122;28;25073;-70
2022/09/30 02:04:41;;;;;;;9.32;5.70;;;10.10;99.90;;;;;;4981352;28;25090;-70
2022/09/30 02:07:16;;;;;;;10.77;5.90;;;10.00;99.90;;;;;;4980593;28;25166;-71
2022/09/30 02:09:48;;;;;;;10.98;6.10;;;10.00;99.90;;;;;;4980290;28;24853;-70
2022/09/30 02:12:19;;;;;;;8.90;5.97;;;9.90;99.90;;;;;;4985122;28;25050;-69
2022/09/30 02:14:51;;;;;;;9.95;6.22;;;9.90;99.90;;;;;;4983890;28;25079;-71
2022/09/30 02:17:22;;;;;;;10.15;6.05;;;9.80;99.90;;;;;;4980894;28;25078;-70
2022/09/30 02:20:09;;;;;;;10.90;6.10;;;9.80;99.90;;;;;;4995824;28;25171;-71
2022/09/30 02:22:45;;;;;;;14.15;6.18;;;9.90;99.90;;;;;;4998320;28;25067;-70
2022/09/30 02:25:21;;;;;;;11.93;5.65;;;9.80;99.90;;;;;;4992412;28;25129;-70
2022/09/30 02:27:52;;;;;;;12.77;6.55;;;9.90;99.90;;;;;;4988012;28;25066;-70
2022/09/30 02:30:18;;;;;;;10.80;5.53;;;9.70;99.90;;;;;;4978740;28;25081;-69
2022/09/30 02:32:51;;;;;;;8.35;5.93;;;9.70;99.90;;;;;;4990288;28;25090;-70
2022/09/30 02:35:34;;;;;;;8.40;5.85;;;9.80;99.90;;;;;;4994633;28;25149;-70
2022/09/30 02:38:04;;;;;;;9.05;5.25;;;9.80;99.90;;;;;;4984067;28;25111;-69
2022/09/30 02:40:40;;;;;;;10.52;5.50;;;9.80;99.90;;;;;;5001088;28;25059;-71
2022/09/30 02:43:06;;;;;;;11.82;5.95;;;9.70;99.90;;;;;;4979229;28;25082;-69
2022/09/30 02:46:10;;;;;;;15.02;6.38;;;9.80;99.90;;;;;;4992583;28;25077;-70
2022/09/30 02:48:48;;;;;;;9.55;5.40;;;9.90;99.90;;;;;;4986293;28;25073;-69
2022/09/30 02:51:32;;;;;;;13.85;5.70;;;9.80;99.90;;;;;;4985880;28;25062;-70
2022/09/30 02:54:21;;;;;;;7.75;5.30;;;9.70;99.90;;;;;;4983652;28;25164;-72
2022/09/30 02:56:55;;;;;;;10.75;5.70;;;9.70;99.90;;;;;;4991439;28;25079;-69
2022/09/30 02:59:23;;;;;;;12.93;5.80;;;9.70;99.90;;;;;;4983593;28;25069;-71
2022/09/30 03:01:48;;;;;;;10.30;5.45;;;9.70;99.90;;;;;;4981564;28;25062;-69
2022/09/30 03:04:20;;;;;;;8.70;5.47;;;9.80;99.90;;;;;;4984290;28;25067;-69
2022/09/30 03:06:46;;;;;;;9.40;5.75;;;9.80;99.90;;;;;;4983067;28;25132;-69
2022/09/30 03:09:11;;;;;;;9.90;5.25;;;9.70;99.90;;;;;;4983535;28;25077;-70
2022/09/30 03:11:37;;;;;;;9.38;5.35;;;9.80;99.90;;;;;;4988888;28;25061;-69
2022/09/30 03:14:31;;;;;;;11.43;6.10;;;9.80;99.90;;;;;;4993908;28;25095;-70
2022/09/30 03:17:18;;;;;;;10.20;6.03;;;9.70;99.90;;;;;;4984799;28;25045;-70
2022/09/30 03:20:08;;;;;;;10.68;5.82;;;9.60;99.90;;;;;;4994553;28;25094;-72
2022/09/30 03:22:46;;;;;;;8.05;5.13;;;9.50;99.90;;;;;;4988339;28;25092;-71
2022/09/30 03:25:48;;;;;;;9.30;5.65;;;9.50;99.90;;;;;;4987966;28;25113;-71
2022/09/30 03:28:34;;;;;;;10.90;5.57;;;9.60;99.90;;;;;;4987754;28;25122;-70
2022/09/30 03:31:33;;;;;;;9.13;5.55;;;9.60;99.90;;;;;;4986844;28;25106;-69
2022/09/30 03:34:14;;;;;;;12.05;6.30;;;9.50;99.90;;;;;;4978340;28;25057;-70
2022/09/30 03:37:11;;;;;;;13.55;6.25;;;9.70;99.90;;;;;;5000554;28;25108;-70
2022/09/30 03:40:09;;;;;;;9.75;5.63;;;9.60;99.90;;;;;;4982524;28;25089;-69
2022/09/30 03:42:42;;;;;;;10.57;5.13;;;9.60;99.90;;;;;;4978146;28;25402;-68
2022/09/30 03:45:19;;;;;;;12.00;6.05;;;9.70;99.90;;;;;;4991612;28;25048;-70
2022/09/30 03:47:50;;;;;;;8.27;5.97;;;9.60;99.90;;;;;;4984832;28;25058;-70
2022/09/30 03:50:20;;;;;;;8.90;5.63;;;9.60;99.90;;;;;;4976667;28;25064;-70
2022/09/30 03:52:47;;;;;;;14.05;6.00;;;9.70;99.90;;;;;;4988564;28;25096;-71
2022/09/30 03:55:14;;;;;;;7.00;4.78;;;9.60;99.90;;;;;;4975896;28;25073;-69
2022/09/30 03:57:41;;;;;;;10.45;5.25;;;9.60;99.90;;;;;;4980738;28;25125;-71
2022/09/30 04:00:07;;;;;;;17.45;6.10;;;9.50;99.90;;;;;;4987374;28;25084;-69
2022/09/30 04:02:34;;;;;;;9.77;5.80;;;9.60;99.90;;;;;;4979505;28;25056;-69
2022/09/30 04:05:00;;;;;;;8.25;5.32;;;9.50;99.90;;;;;;4979782;28;25074;-70
2022/09/30 04:07:25;;;;;;;9.50;5.60;;;9.50;99.90;;;;;;4975159;28;25048;-69
2022/09/30 04:09:51;;;;;;;10.90;5.80;;;9.50;99.90;;;;;;4983695;28;25057;-70
2022/09/30 04:12:17;;;;;;;8.98;5.68;;;9.50;99.90;;;;;;4994220;28;25073;-68
2022/09/30 04:14:43;;;;;;;8.40;5.20;;;9.40;99.90;;;;;;4986929;28;25092;-72
2022/09/30 04:17:08;;;;;;;9.68;5.70;;;9.40;99.90;;;;;;4997737;28;25101;-70
2022/09/30 04:19:39;;;;;;;11.07;6.13;;;9.40;99.90;;;;;;4985911;28;25055;-71
2022/09/30 04:22:06;;;;;;;12.00;5.57;;;9.50;99.90;;;;;;4991950;28;25067;-72
2022/09/30 04:24:32;;;;;;;11.18;5.80;;;9.50;99.90;;;;;;4991015;28;25070;-71
2022/09/30 04:26:57;;;;;;;10.30;6.47;;;9.40;99.90;;;;;;4984191;28;25094;-69
2022/09/30 04:29:23;;;;;;;11.57;6.35;;;9.40;99.90;;;;;;4982087;28;25098;-71
2022/09/30 04:31:48;;;;;;;12.57;5.82;;;9.40;99.90;;;;;;4987288;28;25124;-68
2022/09/30 04:34:14;;;;;;;13.48;6.53;;;9.40;99.90;;;;;;4979698;28;25075;-70
2022/09/30 04:36:39;;;;;;;11.73;6.20;;;9.40;99.90;;;;;;4993382;28;25051;-70
2022/09/30 04:39:05;;;;;;;11.88;6.68;;;9.30;99.90;;;;;;4984872;28;25075;-71
2022/09/30 04:41:32;;;;;;;11.27;6.05;;;9.30;99.90;;;;;;4976554;28;25100;-70
2022/09/30 04:43:59;;;;;;;14.10;7.22;;;9.40;99.90;;;;;;4984785;28;25060;-67
2022/09/30 04:46:24;;;;;;;10.60;6.68;;;9.30;99.90;;;;;;4986819;28;25066;-71
2022/09/30 04:48:50;;;;;;;10.70;6.28;;;9.40;99.90;;;;;;4987622;28;25075;-70
2022/09/30 04:51:18;;;;;;;11.90;5.88;;;9.40;99.90;;;;;;4982090;28;25070;-69
2022/09/30 04:53:44;;;;;;;10.68;6.55;;;9.40;99.90;;;;;;4993471;28;25054;-71
2022/09/30 04:56:11;;;;;;;13.48;6.40;;;9.40;99.90;;;;;;4984147;28;25070;-69
2022/09/30 04:58:37;;;;;;;10.25;6.63;;;9.30;99.90;;;;;;4986885;28;25065;-70
2022/09/30 05:01:05;;;;;;;10.50;5.93;;;9.30;99.90;;;;;;4986533;28;25070;-71
2022/09/30 05:03:32;;;;;;;11.50;7.07;;;9.40;99.90;;;;;;4995774;28;25088;-71
2022/09/30 05:05:57;;;;;;;10.93;6.68;;;9.40;99.90;;;;;;4985466;28;25078;-68
2022/09/30 05:08:23;;;;;;;11.85;7.05;;;9.40;99.90;;;;;;4990005;28;25059;-70
2022/09/30 05:10:54;;;;;;;12.57;7.20;;;9.30;99.90;;;;;;4978965;28;25122;-69
2022/09/30 05:13:19;;;;;;;12.15;7.60;;;9.30;99.90;;;;;;4990234;28;25126;-70
2022/09/30 05:15:48;;;;;;;12.27;7.25;;;9.20;99.90;;;;;;4991894;28;25071;-71
2022/09/30 05:18:13;;;;;;;14.60;6.88;;;9.20;99.90;;;;;;4988509;28;25162;-71
2022/09/30 05:20:39;;;;;;;12.45;7.95;;;9.40;99.90;;;;;;4992070;28;25070;-70
2022/09/30 05:23:05;;;;;;;12.70;8.10;;;9.40;99.90;;;;;;4989049;28;25080;-71
2022/09/30 05:25:30;;;;;;;13.35;7.30;;;9.30;99.90;;;;;;4981708;28;25136;-69
2022/09/30 05:27:56;;;;;;;12.55;7.20;;;9.30;99.90;;;;;;4980833;28;25091;-67
2022/09/30 05:30:21;;;;;;;12.88;7.03;;;9.40;99.90;;;;;;4987534;28;25181;-69
2022/09/30 05:32:47;;;;;;;13.75;7.40;;;9.30;99.90;;;;;;4987256;28;25064;-70
2022/09/30 05:35:13;;;;;;;15.60;8.00;;;9.30;99.90;;;;;;4984646;28;25140;-72
2022/09/30 05:37:39;;;;;;;13.73;7.72;;;9.30;99.90;;;;;;4986672;28;25077;-71
2022/09/30 05:40:06;;;;;;;15.52;9.15;;;9.40;99.90;;;;;;4987752;28;25106;-71
2022/09/30 05:42:35;;;;;;;16.88;9.32;;;9.40;99.90;;;;;;4984188;28;25082;-71
2022/09/30 05:45:03;;;;;;;14.60;9.13;;;9.30;99.90;;;;;;4982821;28;25063;-70
2022/09/30 05:47:28;;;;;;;17.98;8.82;;;9.40;99.90;;;;;;4991682;28;25054;-70
2022/09/30 05:49:54;;;;;;;16.00;8.05;;;9.30;99.90;;;;;;4983219;28;25069;-72
2022/09/30 05:52:21;;;;;;;14.52;8.38;;;9.50;99.90;;;;;;4975581;28;25153;-70
2022/09/30 05:54:47;;;;;;;12.60;7.45;;;9.50;99.90;;;;;;4977433;28;25078;-74
2022/09/30 05:57:12;;;;;;;11.13;7.22;;;9.50;99.90;;;;;;4984280;28;25054;-73
2022/09/30 05:59:38;;;;;;;23.90;10.50;;;9.30;99.90;;;;;;4996433;28;25139;-70
2022/09/30 06:02:04;;;;;;;15.77;9.35;;;9.30;99.90;;;;;;5003782;28;25072;-73
2022/09/30 06:04:29;;;;;;;18.40;9.95;;;9.40;99.90;;;;;;5018775;28;25057;-71
2022/09/30 06:06:55;;;;;;;18.50;10.55;;;9.40;99.90;;;;;;5004967;28;25064;-72
2022/09/30 06:09:21;;;;;;;19.95;10.55;;;9.50;99.90;;;;;;5005776;28;25111;-71
2022/09/30 06:11:46;;;;;;;17.27;10.18;;;9.50;99.90;;;;;;5000251;28;25045;-73
2022/09/30 06:14:12;;;;;;;21.95;10.85;;;9.60;99.90;;;;;;5000323;28;25073;-71
2022/09/30 06:16:38;;;;;;;22.00;11.77;;;9.60;99.90;;;;;;5000915;28;25103;-70
2022/09/30 06:19:05;;;;;;;22.65;11.70;;;9.60;99.90;;;;;;4994517;28;25054;-71
2022/09/30 06:21:31;;;;;;;21.52;11.90;;;9.60;99.90;;;;;;4996610;28;25059;-72
2022/09/30 06:23:57;;;;;;;27.95;13.75;;;9.70;99.90;;;;;;4992368;28;25059;-71
2022/09/30 06:26:22;;;;;;;29.30;14.20;;;9.70;99.90;;;;;;4982294;28;25157;-71
2022/09/30 06:28:49;;;;;;;27.95;15.05;;;9.80;99.90;;;;;;4997710;28;25071;-72
2022/09/30 06:31:14;;;;;;;33.72;18.13;;;9.90;99.90;;;;;;5005733;28;25070;-74
2022/09/30 06:33:41;;;;;;;33.65;18.17;;;10.00;99.90;;;;;;4998751;28;25049;-72
2022/09/30 06:36:07;;;;;;;34.97;18.00;;;10.20;99.90;;;;;;4999029;28;25078;-72
2022/09/30 06:38:36;;;;;;;30.70;16.40;;;10.20;99.90;;;;;;4993884;28;25064;-72
2022/09/30 06:41:01;;;;;;;35.53;17.38;;;10.40;99.90;;;;;;4987988;28;25107;-72
2022/09/30 06:43:27;;;;;;;34.85;18.77;;;10.40;99.90;;;;;;4987426;28;25113;-71
2022/09/30 06:45:53;;;;;;;31.17;17.40;;;10.50;99.90;;;;;;4985678;28;25076;-73
2022/09/30 06:48:18;;;;;;;34.72;16.90;;;10.40;99.90;;;;;;4988779;28;25079;-71
2022/09/30 06:50:45;;;;;;;31.83;17.20;;;10.50;99.90;;;;;;4997943;28;25058;-72
2022/09/30 06:53:11;;;;;;;37.05;17.88;;;10.60;99.90;;;;;;4987303;28;25177;-70
2022/09/30 06:55:38;;;;;;;35.83;19.13;;;10.70;99.90;;;;;;4995734;28;25181;-72
2022/09/30 06:58:07;;;;;;;38.35;19.60;;;10.80;99.90;;;;;;4997247;28;25122;-71
2022/09/30 07:00:33;;;;;;;38.17;19.48;;;10.90;99.90;;;;;;4994353;28;25099;-71
2022/09/30 07:02:58;;;;;;;38.30;19.60;;;10.90;99.90;;;;;;4995891;28;25150;-71
2022/09/30 07:05:25;;;;;;;37.47;17.83;;;11.10;99.90;;;;;;5000815;28;25092;-73
2022/09/30 07:07:51;;;;;;;35.45;19.58;;;11.20;99.90;;;;;;4980747;28;25062;-71
2022/09/30 07:10:17;;;;;;;29.30;17.95;;;11.30;99.90;;;;;;4999390;28;25096;-71
2022/09/30 07:12:42;;;;;;;37.58;17.05;;;11.30;99.90;;;;;;4997707;28;25116;-71
2022/09/30 07:15:08;;;;;;;38.15;18.90;;;11.50;99.90;;;;;;4986802;28;25073;-71
2022/09/30 07:17:34;;;;;;;32.72;17.73;;;11.60;99.90;;;;;;4990159;28;25066;-70
2022/09/30 07:20:00;;;;;;;27.63;15.60;;;11.80;99.90;;;;;;4997487;28;25099;-70
2022/09/30 07:22:29;;;;;;;27.23;15.98;;;11.90;99.90;;;;;;4995262;28;25077;-71
2022/09/30 07:25:02;;;;;;;27.98;16.15;;;11.90;99.90;;;;;;4999115;28;25154;-70
2022/09/30 07:27:31;;;;;;;32.72;15.88;;;12.00;99.90;;;;;;5001051;28;25077;-70
2022/09/30 07:29:58;;;;;;;24.45;14.93;;;12.10;99.90;;;;;;4992547;28;25050;-68
2022/09/30 07:32:23;;;;;;;33.00;17.58;;;12.20;99.90;;;;;;4994055;28;25081;-72
2022/09/30 07:34:49;;;;;;;26.52;16.50;;;12.20;99.90;;;;;;4989716;28;25090;-70
2022/09/30 07:37:17;;;;;;;25.45;15.57;;;12.30;99.90;;;;;;5000739;28;25055;-71
2022/09/30 07:39:45;;;;;;;27.55;15.70;;;12.40;99.90;;;;;;4986638;28;25046;-70
2022/09/30 07:42:12;;;;;;;32.38;16.33;;;12.60;99.90;;;;;;5001501;28;25087;-71
2022/09/30 07:44:40;;;;;;;27.15;16.63;;;12.60;99.90;;;;;;4992075;28;25087;-72
2022/09/30 07:47:07;;;;;;;23.63;15.48;;;12.80;99.90;;;;;;5001955;28;25068;-72
2022/09/30 07:49:33;;;;;;;27.38;15.13;;;12.90;99.90;;;;;;5017915;28;25065;-71
2022/09/30 07:51:59;;;;;;;27.05;15.75;;;13.10;99.90;;;;;;5017281;28;25077;-72
2022/09/30 07:54:28;;;;;;;28.50;15.70;;;13.10;99.90;;;;;;5009757;28;25072;-73
2022/09/30 07:56:54;;;;;;;20.15;13.80;;;13.20;99.90;;;;;;4989518;28;25162;-72
2022/09/30 07:59:20;;;;;;;25.27;14.40;;;13.30;99.90;;;;;;4990518;28;25186;-71
2022/09/30 08:01:47;;;;;;;22.55;14.52;;;13.40;99.90;;;;;;5001812;28;25145;-72
2022/09/30 08:04:15;;;;;;;23.67;13.85;;;13.50;99.90;;;;;;4993209;28;25091;-71
2022/09/30 08:06:50;;;;;;;18.63;13.45;;;13.50;99.90;;;;;;5000681;28;25097;-70
2022/09/30 08:09:19;;;;;;;19.98;11.75;;;13.70;99.90;;;;;;5001083;28;25137;-70
2022/09/30 08:11:45;;;;;;;18.48;11.85;;;13.80;99.90;;;;;;4985909;28;25105;-71
2022/09/30 08:14:16;;;;;;;22.02;12.13;;;14.10;99.90;;;;;;4998646;28;25174;-71
2022/09/30 08:16:42;;;;;;;21.90;10.95;;;14.50;99.90;;;;;;5011874;28;25073;-72
2022/09/30 08:19:12;;;;;;;23.08;10.57;;;14.90;99.90;;;;;;4991481;28;25089;-70
2022/09/30 08:21:38;;;;;;;15.02;9.15;;;14.60;99.90;;;;;;4988691;28;25127;-73
2022/09/30 08:24:04;;;;;;;15.90;9.63;;;14.70;99.90;;;;;;5000670;28;25070;-71
2022/09/30 08:26:29;;;;;;;15.85;8.77;;;15.10;99.90;;;;;;4978911;28;25139;-70
2022/09/30 08:28:55;;;;;;;12.95;8.77;;;15.10;99.90;;;;;;5010988;28;25125;-72
2022/09/30 08:31:22;;;;;;;11.30;7.47;;;15.00;99.90;;;;;;4993437;28;25059;-72
2022/09/30 08:33:48;;;;;;;11.50;7.00;;;15.30;99.90;;;;;;4996234;28;25079;-71
2022/09/30 08:36:19;;;;;;;12.80;6.90;;;15.20;99.90;;;;;;5000115;28;25063;-72
2022/09/30 08:38:45;;;;;;;10.45;6.15;;;15.20;99.90;;;;;;5004157;28;25148;-71
2022/09/30 08:41:32;;;;;;;11.15;6.32;;;15.10;99.90;;;;;;5004472;28;25065;-74
2022/09/30 08:44:24;;;;;;;15.02;6.93;;;15.30;99.90;;;;;;4990115;28;25068;-71
2022/09/30 08:46:51;;;;;;;10.23;6.13;;;15.10;99.90;;;;;;4997149;28;25066;-72
2022/09/30 08:49:35;;;;;;;9.73;5.82;;;15.20;99.90;;;;;;4998047;28;25054;-71
2022/09/30 08:52:03;;;;;;;11.13;5.72;;;15.20;99.90;;;;;;4989040;28;25048;-72
2022/09/30 08:54:33;;;;;;;10.02;5.65;;;15.00;99.90;;;;;;4990364;28;25055;-72
2022/09/30 08:57:02;;;;;;;12.73;5.20;;;15.00;99.90;;;;;;4995513;28;25063;-71
2022/09/30 08:59:43;;;;;;;10.35;5.13;;;15.20;99.90;;;;;;4990433;28;25081;-72
2022/09/30 09:02:26;;;;;;;8.57;4.85;;;15.20;99.90;;;;;;5001154;28;25054;-74
2022/09/30 09:04:55;;;;;;;7.32;4.97;;;15.10;99.90;;;;;;5008660;28;25061;-72
2022/09/30 09:07:53;;;;;;;9.38;4.50;;;15.30;99.90;;;;;;5015145;28;25059;-71
2022/09/30 09:10:37;;;;;;;6.30;4.40;;;15.30;99.90;;;;;;5000175;28;25092;-71
2022/09/30 09:13:18;;;;;;;11.55;4.78;;;15.40;99.90;;;;;;4993501;28;25053;-71
2022/09/30 09:16:00;;;;;;;8.30;4.75;;;15.30;99.90;;;;;;5004821;28;25059;-71
2022/09/30 09:18:29;;;;;;;6.35;4.82;;;15.20;99.90;;;;;;4987817;28;25123;-73
2022/09/30 09:21:08;;;;;;;6.45;4.68;;;15.10;99.90;;;;;;4993412;28;25063;-71
2022/09/30 09:23:34;;;;;;;5.40;4.30;;;15.00;99.90;;;;;;5011953;28;25086;-71
2022/09/30 09:26:00;;;;;;;6.40;3.78;;;15.00;99.90;;;;;;4989622;28;25055;-72
2022/09/30 09:28:53;;;;;;;5.82;4.47;;;15.00;99.90;;;;;;4996479;28;25145;-73
2022/09/30 09:31:19;;;;;;;5.78;4.03;;;15.10;99.90;;;;;;4997655;28;25074;-71
2022/09/30 09:33:46;;;;;;;8.48;3.88;;;15.00;99.90;;;;;;4998060;28;25153;-71
2022/09/30 09:36:49;;;;;;;7.15;3.35;;;15.00;99.90;;;;;;4994650;28;25109;-73
2022/09/30 09:39:24;;;;;;;6.25;3.40;;;15.10;99.90;;;;;;4979197;28;25106;-70
2022/09/30 09:42:22;;;;;;;5.93;3.25;;;15.10;99.90;;;;;;4993452;28;26210;-71
2022/09/30 09:44:59;;;;;;;7.32;2.80;;;15.10;99.90;;;;;;5000997;28;25105;-74
2022/09/30 09:47:24;;;;;;;5.68;3.50;;;15.10;99.90;;;;;;4984590;28;25141;-71
2022/09/30 09:49:56;;;;;;;8.95;3.38;;;15.20;99.90;;;;;;4998774;28;25084;-70
2022/09/30 09:52:54;;;;;;;4.15;2.47;;;15.30;99.90;;;;;;4995654;28;25058;-71
2022/09/30 09:55:21;;;;;;;7.82;3.08;;;15.30;99.90;;;;;;4986688;28;25092;-71
2022/09/30 09:57:48;;;;;;;5.85;2.53;;;15.30;99.90;;;;;;4998108;28;25143;-70
2022/09/30 10:03:07;;;;;;;5.47;2.35;;;15.70;99.90;;;;;;5000866;28;25057;-69
2022/09/30 10:05:46;;;;;;;2.63;1.95;;;15.70;99.90;;;;;;5007226;28;25117;-72
2022/09/30 10:08:16;;;;;;;5.28;2.40;;;15.70;99.90;;;;;;4999383;28;25076;-72
2022/09/30 10:10:51;;;;;;;3.65;2.30;;;15.70;99.90;;;;;;5009267;28;25075;-71
2022/09/30 10:13:26;;;;;;;3.30;2.45;;;15.70;99.90;;;;;;5002744;28;25086;-72
2022/09/30 10:15:53;;;;;;;3.25;1.70;;;15.80;99.90;;;;;;5012928;28;25068;-70
2022/09/30 10:18:32;;;;;;;2.00;1.63;;;15.60;99.90;;;;;;4997468;28;25070;-71
2022/09/30 10:21:04;;;;;;;3.88;1.85;;;15.70;99.90;;;;;;4996052;28;25206;-71
2022/09/30 10:23:37;;;;;;;5.00;2.33;;;15.70;99.90;;;;;;5008143;28;25079;-70
2022/09/30 10:26:23;;;;;;;4.32;2.30;;;15.70;99.90;;;;;;4997540;28;25085;-73
2022/09/30 10:28:59;;;;;;;6.03;2.35;;;15.70;99.90;;;;;;5002104;28;25152;-71
2022/09/30 10:31:39;;;;;;;2.80;1.98;;;15.70;99.90;;;;;;4999280;28;25046;-71
2022/09/30 10:34:25;;;;;;;4.45;2.17;;;15.60;99.90;;;;;;4997055;28;25100;-71
2022/09/30 10:36:52;;;;;;;3.67;2.08;;;15.60;99.90;;;;;;5002167;28;25082;-71
2022/09/30 10:39:40;;;;;;;2.78;1.80;;;15.70;99.90;;;;;;4997163;28;25069;-72
2022/09/30 10:42:27;;;;;;;3.10;2.00;;;15.90;99.90;;;;;;4995312;28;25065;-73
2022/09/30 10:45:20;;;;;;;4.53;2.42;;;15.90;99.90;;;;;;5003780;28;25086;-70
2022/09/30 10:47:49;;;;;;;4.63;2.20;;;15.90;99.90;;;;;;4996229;28;24923;-73
2022/09/30 10:50:19;;;;;;;3.60;1.90;;;16.10;99.90;;;;;;5001053;28;25163;-72
2022/09/30 10:52:56;;;;;;;2.08;1.52;;;16.30;99.90;;;;;;4992235;28;25069;-69
2022/09/30 10:55:32;;;;;;;6.07;2.72;;;16.00;99.90;;;;;;4993354;28;25061;-72
2022/09/30 10:58:20;;;;;;;3.60;2.30;;;15.90;99.90;;;;;;4982705;28;25086;-71
2022/09/30 11:00:49;;;;;;;5.63;2.58;;;15.90;99.90;;;;;;4986489;28;25057;-75
2022/09/30 11:03:33;;;;;;;5.13;2.92;;;15.90;99.90;;;;;;4996162;28;25093;-73
2022/09/30 11:06:00;;;;;;;6.18;2.28;;;16.10;99.90;;;;;;4991453;28;25068;-70
2022/09/30 11:08:40;;;;;;;6.22;2.00;;;16.30;99.90;;;;;;4994193;28;25098;-72
2022/09/30 11:11:23;;;;;;;3.95;2.67;;;16.30;99.90;;;;;;4998446;28;25181;-72
2022/09/30 11:14:16;;;;;;;5.78;3.08;;;16.30;99.90;;;;;;4995729;28;25162;-71
2022/09/30 11:17:18;;;;;;;2.33;2.13;;;16.50;99.90;;;;;;4993884;28;25078;-71
2022/09/30 11:20:00;;;;;;;3.33;2.30;;;16.80;99.90;;;;;;4991506;28;25072;-71
2022/09/30 11:22:46;;;;;;;5.57;2.78;;;17.10;99.90;;;;;;4995998;28;25076;-73
2022/09/30 11:25:21;;;;;;;6.85;3.30;;;17.10;99.90;;;;;;4979641;28;25137;-71
2022/09/30 11:27:52;;;;;;;8.40;3.33;;;17.00;99.90;;;;;;5002824;28;25112;-71
2022/09/30 11:30:26;;;;;;;7.57;4.10;;;17.00;99.90;;;;;;4989628;28;25141;-71
2022/09/30 11:33:12;;;;;;;7.95;4.22;;;16.90;99.90;;;;;;4997424;28;25104;-70
2022/09/30 11:36:22;;;;;;;6.30;4.05;;;16.80;99.90;;;;;;5000725;28;25088;-72
2022/09/30 11:39:18;;;;;;;10.52;3.85;;;16.60;99.90;;;;;;4987203;28;25055;-70
2022/09/30 11:41:53;;;;;;;7.20;3.40;;;16.60;99.90;;;;;;4997017;28;25088;-71
2022/09/30 11:44:37;;;;;;;8.60;4.53;;;16.70;99.90;;;;;;5001860;28;25071;-72
2022/09/30 11:47:37;;;;;;;8.30;3.63;;;16.60;99.90;;;;;;4992800;28;25113;-70
2022/09/30 11:50:21;;;;;;;7.38;3.38;;;16.50;99.90;;;;;;4986804;28;25062;-70
2022/09/30 11:52:54;;;;;;;4.60;2.90;;;16.70;99.90;;;;;;4996722;28;25080;-69
2022/09/30 11:55:41;;;;;;;6.57;3.80;;;17.30;99.90;;;;;;5002551;28;25072;-70
2022/09/30 11:58:27;;;;;;;4.68;2.92;;;17.80;99.90;;;;;;4995847;28;25056;-71
2022/09/30 12:01:20;;;;;;;4.20;2.63;;;18.40;99.90;;;;;;4995151;28;25168;-69
2022/09/30 12:03:57;;;;;;;4.53;2.70;;;18.70;99.90;;;;;;4997800;28;25046;-73
2022/09/30 12:06:34;;;;;;;4.53;2.50;;;18.80;99.90;;;;;;4999283;28;25149;-72
2022/09/30 12:09:14;;;;;;;4.07;2.33;;;18.90;99.90;;;;;;4985828;28;25116;-72
2022/09/30 12:12:07;;;;;;;7.07;2.70;;;19.50;99.90;;;;;;4992831;28;25069;-71
2022/09/30 12:14:46;;;;;;;5.85;2.25;;;19.80;99.90;;;;;;4990984;28;25074;-71
2022/09/30 12:17:30;;;;;;;3.53;2.00;;;19.90;99.90;;;;;;4998216;28;25070;-71
2022/09/30 12:20:02;;;;;;;3.40;2.30;;;19.50;99.90;;;;;;5006767;28;25072;-71
2022/09/30 12:22:39;;;;;;;4.57;2.10;;;19.10;99.90;;;;;;5016084;28;25065;-71
2022/09/30 12:25:19;;;;;;;3.50;2.10;;;19.10;99.90;;;;;;5004851;28;25067;-72
2022/09/30 12:27:58;;;;;;;3.40;2.42;;;19.20;99.90;;;;;;4999035;28;25091;-71
2022/09/30 12:30:27;;;;;;;2.15;1.83;;;19.50;99.90;;;;;;4999452;28;25123;-71
2022/09/30 12:33:31;;;;;;;3.67;2.13;;;19.70;99.90;;;;;;4993484;28;25062;-72
2022/09/30 12:36:35;;;;;;;3.88;2.10;;;19.10;99.90;;;;;;4993003;28;25114;-72
2022/09/30 12:39:13;;;;;;;5.25;2.75;;;18.40;99.90;;;;;;4992008;28;25063;-70
2022/09/30 12:41:59;;;;;;;4.03;2.00;;;17.90;99.90;;;;;;4998950;28;25073;-71
2022/09/30 12:45:10;;;;;;;2.88;1.83;;;18.30;99.90;;;;;;4993528;28;25078;-71
2022/09/30 12:47:47;;;;;;;5.13;1.67;;;18.90;99.90;;;;;;4987679;28;25108;-72
2022/09/30 12:50:17;;;;;;;2.65;1.70;;;19.30;99.90;;;;;;4999050;28;25125;-71
2022/09/30 12:52:43;;;;;;;1.83;1.58;;;19.20;99.90;;;;;;4998954;28;25100;-71
2022/09/30 12:55:37;;;;;;;2.75;1.60;;;18.80;99.90;;;;;;4994376;28;25090;-71
2022/09/30 12:58:04;;;;;;;3.92;1.83;;;18.90;99.90;;;;;;4988050;28;25159;-69
2022/09/30 13:00:33;;;;;;;7.45;1.92;;;18.90;99.90;;;;;;4992536;28;25132;-69
2022/09/30 13:03:14;;;;;;;3.55;2.15;;;18.90;99.90;;;;;;4999525;28;25131;-69
2022/09/30 13:05:39;;;;;;;3.05;2.20;;;19.10;99.90;;;;;;4994568;28;25070;-72
2022/09/30 13:08:05;;;;;;;5.72;2.80;;;19.30;99.90;;;;;;5001311;28;25074;-70
2022/09/30 13:10:37;;;;;;;3.08;2.17;;;19.10;99.90;;;;;;5002765;28;25054;-72
2022/09/30 13:13:09;;;;;;;3.35;2.30;;;18.80;99.90;;;;;;4996090;28;25143;-71
2022/09/30 13:15:35;;;;;;;3.45;2.33;;;18.50;99.90;;;;;;5000988;28;25056;-71
2022/09/30 13:18:28;;;;;;;4.13;2.75;;;18.40;99.90;;;;;;4990448;28;25119;-72
2022/09/30 13:21:05;;;;;;;8.32;3.33;;;18.30;99.90;;;;;;4971795;28;25082;-72